sensor_id;sensor_type;location;lat;lon;timestamp;temperature;humidity
81202;DHT22;71068;47.662;-2.750;2023-08-17T00:02:16;21.00;71.30
81202;DHT22;71068;47.662;-2.750;2023-08-17T00:04:42;21.20;70.60
81202;DHT22;71068;47.662;-2.750;2023-08-17T00:07:19;20.90;71.50
81202;DHT22;71068;47.662;-2.750;2023-08-17T00:09:45;20.80;72.30
81202;DHT22;71068;47.662;-2.750;2023-08-17T00:12:12;20.90;71.60
81202;DHT22;71068;47.662;-2.750;2023-08-17T00:14:38;20.90;71.70
81202;DHT22;71068;47.662;-2.750;2023-08-17T00:17:05;20.90;72.10
81202;DHT22;71068;47.662;-2.750;2023-08-17T00:19:32;20.60;73.20
81202;DHT22;71068;47.662;-2.750;2023-08-17T00:21:58;20.60;72.90
81202;DHT22;71068;47.662;-2.750;2023-08-17T00:24:24;20.70;73.00
81202;DHT22;71068;47.662;-2.750;2023-08-17T00:26:50;20.80;71.90
81202;DHT22;71068;47.662;-2.750;2023-08-17T00:29:16;20.80;72.00
81202;DHT22;71068;47.662;-2.750;2023-08-17T00:31:42;20.90;72.40
81202;DHT22;71068;47.662;-2.750;2023-08-17T00:34:08;21.00;71.70
81202;DHT22;71068;47.662;-2.750;2023-08-17T00:36:35;20.80;72.30
81202;DHT22;71068;47.662;-2.750;2023-08-17T00:39:01;20.80;72.50
81202;DHT22;71068;47.662;-2.750;2023-08-17T00:41:27;21.00;71.60
81202;DHT22;71068;47.662;-2.750;2023-08-17T00:43:57;20.90;72.30
81202;DHT22;71068;47.662;-2.750;2023-08-17T00:46:23;20.90;72.40
81202;DHT22;71068;47.662;-2.750;2023-08-17T00:48:50;20.80;72.70
81202;DHT22;71068;47.662;-2.750;2023-08-17T00:51:18;20.90;72.70
81202;DHT22;71068;47.662;-2.750;2023-08-17T00:53:46;20.90;72.70
81202;DHT22;71068;47.662;-2.750;2023-08-17T00:56:13;20.80;72.30
81202;DHT22;71068;47.662;-2.750;2023-08-17T00:58:39;21.00;72.40
81202;DHT22;71068;47.662;-2.750;2023-08-17T01:01:06;20.90;72.60
81202;DHT22;71068;47.662;-2.750;2023-08-17T01:03:32;20.80;72.80
81202;DHT22;71068;47.662;-2.750;2023-08-17T01:05:58;21.00;72.60
81202;DHT22;71068;47.662;-2.750;2023-08-17T01:08:24;20.90;72.40
81202;DHT22;71068;47.662;-2.750;2023-08-17T01:17:17;20.80;73.30
81202;DHT22;71068;47.662;-2.750;2023-08-17T01:19:46;20.70;73.50
81202;DHT22;71068;47.662;-2.750;2023-08-17T01:22:16;20.70;73.80
81202;DHT22;71068;47.662;-2.750;2023-08-17T01:24:46;20.60;73.70
81202;DHT22;71068;47.662;-2.750;2023-08-17T01:27:12;20.60;74.30
81202;DHT22;71068;47.662;-2.750;2023-08-17T01:29:38;20.50;74.30
81202;DHT22;71068;47.662;-2.750;2023-08-17T01:35:01;20.30;74.40
81202;DHT22;71068;47.662;-2.750;2023-08-17T01:37:34;20.30;74.80
81202;DHT22;71068;47.662;-2.750;2023-08-17T01:40:01;20.50;74.50
81202;DHT22;71068;47.662;-2.750;2023-08-17T01:42:28;20.60;73.70
81202;DHT22;71068;47.662;-2.750;2023-08-17T01:44:57;20.50;74.10
81202;DHT22;71068;47.662;-2.750;2023-08-17T01:47:23;20.60;74.00
81202;DHT22;71068;47.662;-2.750;2023-08-17T01:49:51;20.50;74.50
81202;DHT22;71068;47.662;-2.750;2023-08-17T01:52:23;20.60;74.20
81202;DHT22;71068;47.662;-2.750;2023-08-17T01:54:55;20.50;74.40
81202;DHT22;71068;47.662;-2.750;2023-08-17T01:57:21;20.60;74.20
81202;DHT22;71068;47.662;-2.750;2023-08-17T01:59:47;20.40;74.70
81202;DHT22;71068;47.662;-2.750;2023-08-17T02:02:12;20.40;74.80
81202;DHT22;71068;47.662;-2.750;2023-08-17T02:04:40;20.40;74.60
81202;DHT22;71068;47.662;-2.750;2023-08-17T02:07:06;20.60;74.30
81202;DHT22;71068;47.662;-2.750;2023-08-17T02:09:32;20.60;74.20
81202;DHT22;71068;47.662;-2.750;2023-08-17T02:11:58;20.60;74.20
81202;DHT22;71068;47.662;-2.750;2023-08-17T02:14:24;20.60;74.10
81202;DHT22;71068;47.662;-2.750;2023-08-17T02:16:52;20.70;73.60
81202;DHT22;71068;47.662;-2.750;2023-08-17T02:19:19;20.80;73.60
81202;DHT22;71068;47.662;-2.750;2023-08-17T02:21:45;20.60;74.20
81202;DHT22;71068;47.662;-2.750;2023-08-17T02:24:11;20.50;74.60
81202;DHT22;71068;47.662;-2.750;2023-08-17T02:26:38;20.30;74.60
81202;DHT22;71068;47.662;-2.750;2023-08-17T02:29:05;20.50;74.60
81202;DHT22;71068;47.662;-2.750;2023-08-17T02:31:31;20.40;74.90
81202;DHT22;71068;47.662;-2.750;2023-08-17T02:33:57;20.40;74.70
81202;DHT22;71068;47.662;-2.750;2023-08-17T02:36:29;20.50;74.40
81202;DHT22;71068;47.662;-2.750;2023-08-17T02:38:55;20.60;74.30
81202;DHT22;71068;47.662;-2.750;2023-08-17T02:41:21;20.50;74.40
81202;DHT22;71068;47.662;-2.750;2023-08-17T02:43:48;20.60;74.10
81202;DHT22;71068;47.662;-2.750;2023-08-17T02:46:14;20.60;74.30
81202;DHT22;71068;47.662;-2.750;2023-08-17T02:48:40;20.60;74.20
81202;DHT22;71068;47.662;-2.750;2023-08-17T02:51:07;20.50;74.40
81202;DHT22;71068;47.662;-2.750;2023-08-17T02:53:32;20.60;74.30
81202;DHT22;71068;47.662;-2.750;2023-08-17T02:56:00;20.50;74.40
81202;DHT22;71068;47.662;-2.750;2023-08-17T02:58:27;20.40;74.50
81202;DHT22;71068;47.662;-2.750;2023-08-17T03:00:53;20.50;74.50
81202;DHT22;71068;47.662;-2.750;2023-08-17T03:03:21;20.60;74.20
81202;DHT22;71068;47.662;-2.750;2023-08-17T03:05:47;20.50;74.40
81202;DHT22;71068;47.662;-2.750;2023-08-17T03:08:13;20.50;74.20
81202;DHT22;71068;47.662;-2.750;2023-08-17T03:10:39;20.40;74.30
81202;DHT22;71068;47.662;-2.750;2023-08-17T03:13:05;20.50;74.20
81202;DHT22;71068;47.662;-2.750;2023-08-17T03:15:31;20.50;74.80
81202;DHT22;71068;47.662;-2.750;2023-08-17T03:17:57;20.50;74.40
81202;DHT22;71068;47.662;-2.750;2023-08-17T03:20:23;20.50;74.60
81202;DHT22;71068;47.662;-2.750;2023-08-17T03:22:49;20.50;74.30
81202;DHT22;71068;47.662;-2.750;2023-08-17T03:25:14;20.60;74.40
81202;DHT22;71068;47.662;-2.750;2023-08-17T03:27:45;20.40;74.70
81202;DHT22;71068;47.662;-2.750;2023-08-17T03:30:18;20.40;74.80
81202;DHT22;71068;47.662;-2.750;2023-08-17T03:32:52;20.40;74.60
81202;DHT22;71068;47.662;-2.750;2023-08-17T03:35:22;20.40;74.60
81202;DHT22;71068;47.662;-2.750;2023-08-17T03:37:49;20.40;74.70
81202;DHT22;71068;47.662;-2.750;2023-08-17T03:40:15;20.40;74.50
81202;DHT22;71068;47.662;-2.750;2023-08-17T03:42:42;20.50;74.40
81202;DHT22;71068;47.662;-2.750;2023-08-17T03:45:09;20.50;74.40
81202;DHT22;71068;47.662;-2.750;2023-08-17T03:47:36;20.60;74.30
81202;DHT22;71068;47.662;-2.750;2023-08-17T03:50:03;20.60;74.30
81202;DHT22;71068;47.662;-2.750;2023-08-17T03:52:31;20.60;73.70
81202;DHT22;71068;47.662;-2.750;2023-08-17T03:54:57;20.70;73.80
81202;DHT22;71068;47.662;-2.750;2023-08-17T03:57:23;20.60;74.10
81202;DHT22;71068;47.662;-2.750;2023-08-17T03:59:49;20.40;74.50
81202;DHT22;71068;47.662;-2.750;2023-08-17T04:02:16;20.40;75.10
81202;DHT22;71068;47.662;-2.750;2023-08-17T04:04:42;20.30;75.40
81202;DHT22;71068;47.662;-2.750;2023-08-17T04:07:08;20.40;75.10
81202;DHT22;71068;47.662;-2.750;2023-08-17T04:09:44;20.40;74.80
81202;DHT22;71068;47.662;-2.750;2023-08-17T04:12:11;20.40;74.70
81202;DHT22;71068;47.662;-2.750;2023-08-17T04:14:38;20.30;75.30
81202;DHT22;71068;47.662;-2.750;2023-08-17T04:17:04;20.40;75.00
81202;DHT22;71068;47.662;-2.750;2023-08-17T04:19:30;20.40;75.00
81202;DHT22;71068;47.662;-2.750;2023-08-17T04:21:56;20.30;75.00
81202;DHT22;71068;47.662;-2.750;2023-08-17T04:24:22;20.50;74.50
81202;DHT22;71068;47.662;-2.750;2023-08-17T04:26:48;20.30;75.30
81202;DHT22;71068;47.662;-2.750;2023-08-17T04:29:13;20.30;75.00
81202;DHT22;71068;47.662;-2.750;2023-08-17T04:31:40;20.40;75.10
81202;DHT22;71068;47.662;-2.750;2023-08-17T04:34:08;20.20;75.40
81202;DHT22;71068;47.662;-2.750;2023-08-17T04:36:34;20.10;75.60
81202;DHT22;71068;47.662;-2.750;2023-08-17T04:39:01;20.20;75.20
81202;DHT22;71068;47.662;-2.750;2023-08-17T04:41:29;20.20;75.40
81202;DHT22;71068;47.662;-2.750;2023-08-17T04:43:56;20.10;76.10
81202;DHT22;71068;47.662;-2.750;2023-08-17T04:46:22;20.10;76.00
81202;DHT22;71068;47.662;-2.750;2023-08-17T04:48:48;20.10;76.00
81202;DHT22;71068;47.662;-2.750;2023-08-17T04:51:15;20.20;75.80
81202;DHT22;71068;47.662;-2.750;2023-08-17T04:53:41;20.00;75.90
81202;DHT22;71068;47.662;-2.750;2023-08-17T04:56:07;20.00;76.40
81202;DHT22;71068;47.662;-2.750;2023-08-17T04:58:35;20.10;75.90
81202;DHT22;71068;47.662;-2.750;2023-08-17T05:01:01;20.20;75.70
81202;DHT22;71068;47.662;-2.750;2023-08-17T05:03:27;20.10;76.10
81202;DHT22;71068;47.662;-2.750;2023-08-17T05:05:53;20.30;75.50
81202;DHT22;71068;47.662;-2.750;2023-08-17T05:08:24;20.30;74.90
81202;DHT22;71068;47.662;-2.750;2023-08-17T05:10:50;20.40;75.00
81202;DHT22;71068;47.662;-2.750;2023-08-17T05:13:16;20.40;75.00
81202;DHT22;71068;47.662;-2.750;2023-08-17T05:15:42;20.30;75.30
81202;DHT22;71068;47.662;-2.750;2023-08-17T05:18:10;20.30;75.40
81202;DHT22;71068;47.662;-2.750;2023-08-17T05:20:38;20.20;75.60
81202;DHT22;71068;47.662;-2.750;2023-08-17T05:23:04;20.10;76.20
81202;DHT22;71068;47.662;-2.750;2023-08-17T05:25:30;20.00;76.20
81202;DHT22;71068;47.662;-2.750;2023-08-17T05:27:56;20.10;76.00
81202;DHT22;71068;47.662;-2.750;2023-08-17T05:30:22;20.30;75.50
81202;DHT22;71068;47.662;-2.750;2023-08-17T05:32:48;20.20;75.60
81202;DHT22;71068;47.662;-2.750;2023-08-17T05:35:14;20.30;75.70
81202;DHT22;71068;47.662;-2.750;2023-08-17T05:37:40;20.40;75.30
81202;DHT22;71068;47.662;-2.750;2023-08-17T05:40:07;20.40;75.30
81202;DHT22;71068;47.662;-2.750;2023-08-17T05:42:36;20.50;75.00
81202;DHT22;71068;47.662;-2.750;2023-08-17T05:45:02;20.50;74.90
81202;DHT22;71068;47.662;-2.750;2023-08-17T05:47:30;20.50;74.90
81202;DHT22;71068;47.662;-2.750;2023-08-17T05:49:56;20.50;74.90
81202;DHT22;71068;47.662;-2.750;2023-08-17T05:52:22;20.40;75.00
81202;DHT22;71068;47.662;-2.750;2023-08-17T05:54:48;20.50;74.90
81202;DHT22;71068;47.662;-2.750;2023-08-17T05:57:14;20.50;75.00
81202;DHT22;71068;47.662;-2.750;2023-08-17T05:59:42;20.50;74.90
81202;DHT22;71068;47.662;-2.750;2023-08-17T06:02:09;20.60;74.90
81202;DHT22;71068;47.662;-2.750;2023-08-17T06:04:36;20.50;75.00
81202;DHT22;71068;47.662;-2.750;2023-08-17T06:07:02;20.60;74.80
81202;DHT22;71068;47.662;-2.750;2023-08-17T06:09:29;20.60;75.20
81202;DHT22;71068;47.662;-2.750;2023-08-17T06:11:54;20.60;75.50
81202;DHT22;71068;47.662;-2.750;2023-08-17T06:14:21;20.60;75.20
81202;DHT22;71068;47.662;-2.750;2023-08-17T06:16:50;20.60;75.10
81202;DHT22;71068;47.662;-2.750;2023-08-17T06:19:16;20.60;75.20
81202;DHT22;71068;47.662;-2.750;2023-08-17T06:21:42;20.70;75.10
81202;DHT22;71068;47.662;-2.750;2023-08-17T06:24:08;20.70;74.90
81202;DHT22;71068;47.662;-2.750;2023-08-17T06:26:36;20.80;74.90
81202;DHT22;71068;47.662;-2.750;2023-08-17T06:29:02;20.90;75.10
81202;DHT22;71068;47.662;-2.750;2023-08-17T06:31:28;20.90;75.00
81202;DHT22;71068;47.662;-2.750;2023-08-17T06:33:54;21.00;75.00
81202;DHT22;71068;47.662;-2.750;2023-08-17T06:36:20;21.00;75.00
81202;DHT22;71068;47.662;-2.750;2023-08-17T06:38:46;21.00;74.90
81202;DHT22;71068;47.662;-2.750;2023-08-17T06:41:13;21.10;74.90
81202;DHT22;71068;47.662;-2.750;2023-08-17T06:43:39;21.10;75.00
81202;DHT22;71068;47.662;-2.750;2023-08-17T06:46:05;21.20;74.80
81202;DHT22;71068;47.662;-2.750;2023-08-17T06:48:31;21.30;74.70
81202;DHT22;71068;47.662;-2.750;2023-08-17T06:50:57;21.40;74.50
81202;DHT22;71068;47.662;-2.750;2023-08-17T06:53:23;21.40;74.60
81202;DHT22;71068;47.662;-2.750;2023-08-17T06:55:50;21.40;74.30
81202;DHT22;71068;47.662;-2.750;2023-08-17T06:58:16;21.60;74.30
81202;DHT22;71068;47.662;-2.750;2023-08-17T07:00:42;21.70;74.20
81202;DHT22;71068;47.662;-2.750;2023-08-17T07:03:10;21.70;74.10
81202;DHT22;71068;47.662;-2.750;2023-08-17T07:05:37;21.70;74.00
81202;DHT22;71068;47.662;-2.750;2023-08-17T07:08:05;21.80;74.40
81202;DHT22;71068;47.662;-2.750;2023-08-17T07:10:32;21.90;74.50
81202;DHT22;71068;47.662;-2.750;2023-08-17T07:12:58;21.80;74.50
81202;DHT22;71068;47.662;-2.750;2023-08-17T07:15:28;22.00;74.00
81202;DHT22;71068;47.662;-2.750;2023-08-17T07:17:55;22.10;73.40
81202;DHT22;71068;47.662;-2.750;2023-08-17T07:20:21;22.20;73.20
81202;DHT22;71068;47.662;-2.750;2023-08-17T07:22:47;22.30;72.90
81202;DHT22;71068;47.662;-2.750;2023-08-17T07:25:14;22.40;72.90
81202;DHT22;71068;47.662;-2.750;2023-08-17T07:27:42;22.40;72.80
81202;DHT22;71068;47.662;-2.750;2023-08-17T07:30:09;22.50;73.10
81202;DHT22;71068;47.662;-2.750;2023-08-17T07:32:36;22.60;73.20
81202;DHT22;71068;47.662;-2.750;2023-08-17T07:35:03;22.60;73.30
81202;DHT22;71068;47.662;-2.750;2023-08-17T07:37:34;22.60;72.90
81202;DHT22;71068;47.662;-2.750;2023-08-17T07:40:00;22.80;72.60
81202;DHT22;71068;47.662;-2.750;2023-08-17T07:42:29;22.90;72.40
81202;DHT22;71068;47.662;-2.750;2023-08-17T07:44:56;22.90;72.70
81202;DHT22;71068;47.662;-2.750;2023-08-17T07:47:24;23.00;72.40
81202;DHT22;71068;47.662;-2.750;2023-08-17T07:49:49;23.00;72.30
81202;DHT22;71068;47.662;-2.750;2023-08-17T07:52:16;23.20;72.20
81202;DHT22;71068;47.662;-2.750;2023-08-17T07:54:41;23.30;71.60
81202;DHT22;71068;47.662;-2.750;2023-08-17T07:57:07;23.30;71.70
81202;DHT22;71068;47.662;-2.750;2023-08-17T07:59:33;23.30;71.70
81202;DHT22;71068;47.662;-2.750;2023-08-17T08:01:59;23.50;71.50
81202;DHT22;71068;47.662;-2.750;2023-08-17T08:04:25;23.50;71.00
81202;DHT22;71068;47.662;-2.750;2023-08-17T08:06:51;23.40;71.70
81202;DHT22;71068;47.662;-2.750;2023-08-17T08:09:19;23.60;71.80
81202;DHT22;71068;47.662;-2.750;2023-08-17T08:11:46;23.70;71.80
81202;DHT22;71068;47.662;-2.750;2023-08-17T08:14:12;23.70;71.70
81202;DHT22;71068;47.662;-2.750;2023-08-17T08:16:40;23.90;72.10
81202;DHT22;71068;47.662;-2.750;2023-08-17T08:19:08;23.90;71.90
81202;DHT22;71068;47.662;-2.750;2023-08-17T08:21:35;24.00;71.60
81202;DHT22;71068;47.662;-2.750;2023-08-17T08:24:01;24.00;71.00
81202;DHT22;71068;47.662;-2.750;2023-08-17T08:26:28;24.00;71.80
81202;DHT22;71068;47.662;-2.750;2023-08-17T08:28:54;24.20;71.50
81202;DHT22;71068;47.662;-2.750;2023-08-17T08:31:21;24.30;71.10
81202;DHT22;71068;47.662;-2.750;2023-08-17T08:33:49;24.40;69.30
81202;DHT22;71068;47.662;-2.750;2023-08-17T08:36:15;24.40;70.50
81202;DHT22;71068;47.662;-2.750;2023-08-17T08:38:42;24.60;70.80
81202;DHT22;71068;47.662;-2.750;2023-08-17T08:41:11;24.60;70.30
81202;DHT22;71068;47.662;-2.750;2023-08-17T08:43:38;24.80;70.40
81202;DHT22;71068;47.662;-2.750;2023-08-17T08:46:04;24.80;69.00
81202;DHT22;71068;47.662;-2.750;2023-08-17T08:48:32;24.70;68.70
81202;DHT22;71068;47.662;-2.750;2023-08-17T08:51:00;24.70;69.70
81202;DHT22;71068;47.662;-2.750;2023-08-17T08:53:44;24.60;69.50
81202;DHT22;71068;47.662;-2.750;2023-08-17T08:56:12;24.80;68.70
81202;DHT22;71068;47.662;-2.750;2023-08-17T08:58:40;24.90;69.60
81202;DHT22;71068;47.662;-2.750;2023-08-17T09:01:09;25.10;69.50
81202;DHT22;71068;47.662;-2.750;2023-08-17T09:03:36;25.10;68.40
81202;DHT22;71068;47.662;-2.750;2023-08-17T09:06:03;25.20;67.90
81202;DHT22;71068;47.662;-2.750;2023-08-17T09:08:30;25.40;68.00
81202;DHT22;71068;47.662;-2.750;2023-08-17T09:10:58;25.50;68.10
81202;DHT22;71068;47.662;-2.750;2023-08-17T09:13:24;25.40;67.40
81202;DHT22;71068;47.662;-2.750;2023-08-17T09:15:52;25.60;67.70
81202;DHT22;71068;47.662;-2.750;2023-08-17T09:18:19;25.70;66.00
81202;DHT22;71068;47.662;-2.750;2023-08-17T09:20:47;25.60;67.40
81202;DHT22;71068;47.662;-2.750;2023-08-17T09:23:17;25.70;66.00
81202;DHT22;71068;47.662;-2.750;2023-08-17T09:25:48;25.60;66.20
81202;DHT22;71068;47.662;-2.750;2023-08-17T09:28:16;25.80;66.60
81202;DHT22;71068;47.662;-2.750;2023-08-17T09:33:25;26.10;65.70
81202;DHT22;71068;47.662;-2.750;2023-08-17T09:35:55;26.40;65.60
81202;DHT22;71068;47.662;-2.750;2023-08-17T09:38:22;26.70;65.90
81202;DHT22;71068;47.662;-2.750;2023-08-17T09:40:49;27.20;64.20
81202;DHT22;71068;47.662;-2.750;2023-08-17T09:43:17;27.30;62.70
81202;DHT22;71068;47.662;-2.750;2023-08-17T09:45:45;27.50;62.50
81202;DHT22;71068;47.662;-2.750;2023-08-17T09:48:19;27.80;62.00
81202;DHT22;71068;47.662;-2.750;2023-08-17T09:50:46;28.00;60.60
81202;DHT22;71068;47.662;-2.750;2023-08-17T09:53:17;28.30;60.00
81202;DHT22;71068;47.662;-2.750;2023-08-17T09:55:45;28.50;58.70
81202;DHT22;71068;47.662;-2.750;2023-08-17T09:58:14;28.60;58.70
81202;DHT22;71068;47.662;-2.750;2023-08-17T10:00:46;28.30;58.20
81202;DHT22;71068;47.662;-2.750;2023-08-17T10:03:14;28.70;58.80
81202;DHT22;71068;47.662;-2.750;2023-08-17T10:05:43;28.60;58.50
81202;DHT22;71068;47.662;-2.750;2023-08-17T10:08:11;28.80;58.30
81202;DHT22;71068;47.662;-2.750;2023-08-17T10:10:43;28.80;58.10
81202;DHT22;71068;47.662;-2.750;2023-08-17T10:13:33;29.00;57.40
81202;DHT22;71068;47.662;-2.750;2023-08-17T10:16:13;29.40;58.00
81202;DHT22;71068;47.662;-2.750;2023-08-17T10:18:54;29.50;56.80
81202;DHT22;71068;47.662;-2.750;2023-08-17T10:21:28;29.60;56.80
81202;DHT22;71068;47.662;-2.750;2023-08-17T10:23:59;30.00;55.90
81202;DHT22;71068;47.662;-2.750;2023-08-17T10:26:25;30.00;54.50
81202;DHT22;71068;47.662;-2.750;2023-08-17T10:28:52;29.80;55.00
81202;DHT22;71068;47.662;-2.750;2023-08-17T10:31:20;30.00;54.70
81202;DHT22;71068;47.662;-2.750;2023-08-17T10:33:47;30.40;53.50
81202;DHT22;71068;47.662;-2.750;2023-08-17T10:36:16;30.60;53.90
81202;DHT22;71068;47.662;-2.750;2023-08-17T10:38:44;31.10;52.40
81202;DHT22;71068;47.662;-2.750;2023-08-17T10:41:13;29.90;55.10
81202;DHT22;71068;47.662;-2.750;2023-08-17T10:46:37;29.90;55.90
81202;DHT22;71068;47.662;-2.750;2023-08-17T10:49:08;30.30;55.40
81202;DHT22;71068;47.662;-2.750;2023-08-17T10:52:07;30.60;52.70
81202;DHT22;71068;47.662;-2.750;2023-08-17T10:54:38;30.10;51.80
81202;DHT22;71068;47.662;-2.750;2023-08-17T11:00:21;30.70;53.10
81202;DHT22;71068;47.662;-2.750;2023-08-17T11:02:57;31.20;52.10
81202;DHT22;71068;47.662;-2.750;2023-08-17T11:05:47;31.60;51.60
81202;DHT22;71068;47.662;-2.750;2023-08-17T11:08:29;32.10;50.80
81202;DHT22;71068;47.662;-2.750;2023-08-17T11:11:13;31.80;51.70
81202;DHT22;71068;47.662;-2.750;2023-08-17T11:13:44;32.20;49.80
81202;DHT22;71068;47.662;-2.750;2023-08-17T11:16:12;31.90;49.80
81202;DHT22;71068;47.662;-2.750;2023-08-17T11:18:40;32.00;49.90
81202;DHT22;71068;47.662;-2.750;2023-08-17T11:21:08;31.70;51.10
81202;DHT22;71068;47.662;-2.750;2023-08-17T11:23:36;31.70;50.50
81202;DHT22;71068;47.662;-2.750;2023-08-17T11:26:04;31.90;51.40
81202;DHT22;71068;47.662;-2.750;2023-08-17T11:28:32;31.90;50.90
81202;DHT22;71068;47.662;-2.750;2023-08-17T11:31:03;31.90;51.20
81202;DHT22;71068;47.662;-2.750;2023-08-17T11:33:32;32.10;50.20
81202;DHT22;71068;47.662;-2.750;2023-08-17T11:36:01;31.60;51.30
81202;DHT22;71068;47.662;-2.750;2023-08-17T11:38:41;30.40;53.60
81202;DHT22;71068;47.662;-2.750;2023-08-17T11:41:10;31.30;51.40
81202;DHT22;71068;47.662;-2.750;2023-08-17T11:43:37;31.40;51.10
81202;DHT22;71068;47.662;-2.750;2023-08-17T11:46:04;31.60;50.10
81202;DHT22;71068;47.662;-2.750;2023-08-17T11:48:32;31.80;51.40
81202;DHT22;71068;47.662;-2.750;2023-08-17T11:51:02;31.60;51.50
81202;DHT22;71068;47.662;-2.750;2023-08-17T11:53:37;32.10;50.50
81202;DHT22;71068;47.662;-2.750;2023-08-17T11:56:08;31.90;50.00
81202;DHT22;71068;47.662;-2.750;2023-08-17T11:58:45;31.80;49.50
81202;DHT22;71068;47.662;-2.750;2023-08-17T12:01:13;32.10;48.60
81202;DHT22;71068;47.662;-2.750;2023-08-17T12:03:41;31.90;49.60
81202;DHT22;71068;47.662;-2.750;2023-08-17T12:06:09;32.50;48.10
81202;DHT22;71068;47.662;-2.750;2023-08-17T12:08:37;32.90;46.80
81202;DHT22;71068;47.662;-2.750;2023-08-17T12:11:05;33.20;46.10
81202;DHT22;71068;47.662;-2.750;2023-08-17T12:13:35;32.80;45.90
81202;DHT22;71068;47.662;-2.750;2023-08-17T12:16:01;32.00;48.60
81202;DHT22;71068;47.662;-2.750;2023-08-17T12:18:32;32.20;48.00
81202;DHT22;71068;47.662;-2.750;2023-08-17T12:20:59;32.20;46.90
81202;DHT22;71068;47.662;-2.750;2023-08-17T12:23:24;32.50;47.60
81202;DHT22;71068;47.662;-2.750;2023-08-17T12:25:56;32.60;45.70
81202;DHT22;71068;47.662;-2.750;2023-08-17T12:32:07;33.00;43.20
81202;DHT22;71068;47.662;-2.750;2023-08-17T12:34:34;33.00;42.90
81202;DHT22;71068;47.662;-2.750;2023-08-17T12:37:11;33.10;44.00
81202;DHT22;71068;47.662;-2.750;2023-08-17T12:39:39;32.90;43.30
81202;DHT22;71068;47.662;-2.750;2023-08-17T12:42:06;33.00;43.80
81202;DHT22;71068;47.662;-2.750;2023-08-17T12:44:34;32.70;43.50
81202;DHT22;71068;47.662;-2.750;2023-08-17T12:47:00;32.90;43.00
81202;DHT22;71068;47.662;-2.750;2023-08-17T12:49:26;33.30;41.10
81202;DHT22;71068;47.662;-2.750;2023-08-17T12:51:55;33.10;43.40
81202;DHT22;71068;47.662;-2.750;2023-08-17T12:54:21;33.20;43.40
81202;DHT22;71068;47.662;-2.750;2023-08-17T12:56:48;33.20;39.60
81202;DHT22;71068;47.662;-2.750;2023-08-17T12:59:14;33.20;42.80
81202;DHT22;71068;47.662;-2.750;2023-08-17T13:01:42;33.20;39.90
81202;DHT22;71068;47.662;-2.750;2023-08-17T13:04:08;33.20;40.40
81202;DHT22;71068;47.662;-2.750;2023-08-17T13:06:35;32.80;41.60
81202;DHT22;71068;47.662;-2.750;2023-08-17T13:09:06;32.60;40.00
81202;DHT22;71068;47.662;-2.750;2023-08-17T13:11:32;32.50;39.50
81202;DHT22;71068;47.662;-2.750;2023-08-17T13:14:00;32.80;39.30
81202;DHT22;71068;47.662;-2.750;2023-08-17T13:16:27;33.50;35.10
81202;DHT22;71068;47.662;-2.750;2023-08-17T13:18:54;32.90;36.40
81202;DHT22;71068;47.662;-2.750;2023-08-17T13:21:22;33.40;37.60
81202;DHT22;71068;47.662;-2.750;2023-08-17T13:23:47;33.80;36.30
81202;DHT22;71068;47.662;-2.750;2023-08-17T13:26:14;33.90;33.90
81202;DHT22;71068;47.662;-2.750;2023-08-17T13:28:40;34.50;31.40
81202;DHT22;71068;47.662;-2.750;2023-08-17T13:31:07;34.00;34.50
81202;DHT22;71068;47.662;-2.750;2023-08-17T13:33:34;34.60;36.30
81202;DHT22;71068;47.662;-2.750;2023-08-17T13:36:01;34.80;37.30
81202;DHT22;71068;47.662;-2.750;2023-08-17T13:38:28;33.50;38.00
81202;DHT22;71068;47.662;-2.750;2023-08-17T13:40:54;34.00;37.30
81202;DHT22;71068;47.662;-2.750;2023-08-17T13:43:24;34.20;36.90
81202;DHT22;71068;47.662;-2.750;2023-08-17T13:45:50;34.70;38.60
81202;DHT22;71068;47.662;-2.750;2023-08-17T13:48:17;34.90;40.80
81202;DHT22;71068;47.662;-2.750;2023-08-17T13:50:43;34.10;37.90
81202;DHT22;71068;47.662;-2.750;2023-08-17T13:53:11;34.70;36.80
81202;DHT22;71068;47.662;-2.750;2023-08-17T13:55:39;34.20;35.20
81202;DHT22;71068;47.662;-2.750;2023-08-17T13:58:13;34.30;39.20
81202;DHT22;71068;47.662;-2.750;2023-08-17T14:00:39;33.80;38.00
81202;DHT22;71068;47.662;-2.750;2023-08-17T14:03:06;34.40;36.10
81202;DHT22;71068;47.662;-2.750;2023-08-17T14:05:32;33.70;38.80
81202;DHT22;71068;47.662;-2.750;2023-08-17T14:07:58;34.30;39.20
81202;DHT22;71068;47.662;-2.750;2023-08-17T14:10:25;33.50;40.10
81202;DHT22;71068;47.662;-2.750;2023-08-17T14:12:51;33.70;40.30
81202;DHT22;71068;47.662;-2.750;2023-08-17T14:15:17;33.70;41.80
81202;DHT22;71068;47.662;-2.750;2023-08-17T14:17:45;33.10;42.30
81202;DHT22;71068;47.662;-2.750;2023-08-17T14:20:11;33.90;39.10
81202;DHT22;71068;47.662;-2.750;2023-08-17T14:22:37;34.30;39.00
81202;DHT22;71068;47.662;-2.750;2023-08-17T14:25:03;34.50;38.70
81202;DHT22;71068;47.662;-2.750;2023-08-17T14:27:31;34.50;39.10
81202;DHT22;71068;47.662;-2.750;2023-08-17T14:29:56;34.80;39.00
81202;DHT22;71068;47.662;-2.750;2023-08-17T14:32:34;34.50;38.20
81202;DHT22;71068;47.662;-2.750;2023-08-17T14:35:00;34.10;38.10
81202;DHT22;71068;47.662;-2.750;2023-08-17T14:37:26;34.40;37.70
81202;DHT22;71068;47.662;-2.750;2023-08-17T14:39:53;34.20;38.00
81202;DHT22;71068;47.662;-2.750;2023-08-17T14:42:19;33.20;39.10
81202;DHT22;71068;47.662;-2.750;2023-08-17T14:44:45;34.20;37.70
81202;DHT22;71068;47.662;-2.750;2023-08-17T14:47:11;33.00;39.80
81202;DHT22;71068;47.662;-2.750;2023-08-17T14:49:37;33.10;38.90
81202;DHT22;71068;47.662;-2.750;2023-08-17T14:52:03;33.50;38.90
81202;DHT22;71068;47.662;-2.750;2023-08-17T14:54:30;32.60;40.90
81202;DHT22;71068;47.662;-2.750;2023-08-17T14:56:57;33.00;39.10
81202;DHT22;71068;47.662;-2.750;2023-08-17T14:59:23;33.30;38.40
81202;DHT22;71068;47.662;-2.750;2023-08-17T15:01:49;33.70;37.40
81202;DHT22;71068;47.662;-2.750;2023-08-17T15:04:16;33.60;38.30
81202;DHT22;71068;47.662;-2.750;2023-08-17T15:06:44;32.90;40.00
81202;DHT22;71068;47.662;-2.750;2023-08-17T15:09:12;32.70;40.40
81202;DHT22;71068;47.662;-2.750;2023-08-17T15:11:38;32.30;39.00
81202;DHT22;71068;47.662;-2.750;2023-08-17T15:14:05;33.10;39.00
81202;DHT22;71068;47.662;-2.750;2023-08-17T15:16:33;33.00;40.10
81202;DHT22;71068;47.662;-2.750;2023-08-17T15:19:01;32.60;40.30
81202;DHT22;71068;47.662;-2.750;2023-08-17T15:21:27;33.20;39.70
81202;DHT22;71068;47.662;-2.750;2023-08-17T15:23:53;33.00;39.90
81202;DHT22;71068;47.662;-2.750;2023-08-17T15:26:19;33.80;38.90
81202;DHT22;71068;47.662;-2.750;2023-08-17T15:28:47;33.60;39.30
81202;DHT22;71068;47.662;-2.750;2023-08-17T15:31:14;32.40;40.20
81202;DHT22;71068;47.662;-2.750;2023-08-17T15:33:42;32.90;40.10
81202;DHT22;71068;47.662;-2.750;2023-08-17T15:36:08;32.90;40.00
81202;DHT22;71068;47.662;-2.750;2023-08-17T15:38:35;31.80;42.20
81202;DHT22;71068;47.662;-2.750;2023-08-17T15:41:03;32.00;42.30